sensor_id;sensor_type;location;lat;lon;timestamp;temperature;humidity
60309;DHT22;50313;52.894;6.492;2024-03-07T00:01:27;4.70;99.90
60309;DHT22;50313;52.894;6.492;2024-03-07T00:03:53;4.70;99.90
60309;DHT22;50313;52.894;6.492;2024-03-07T00:06:19;4.70;99.90
60309;DHT22;50313;52.894;6.492;2024-03-07T00:08:46;4.70;99.90
60309;DHT22;50313;52.894;6.492;2024-03-07T00:11:12;4.70;99.90
60309;DHT22;50313;52.894;6.492;2024-03-07T00:13:38;4.70;99.90
60309;DHT22;50313;52.894;6.492;2024-03-07T00:16:04;4.60;99.90
60309;DHT22;50313;52.894;6.492;2024-03-07T00:18:30;4.70;99.90
60309;DHT22;50313;52.894;6.492;2024-03-07T00:20:56;4.60;99.90
60309;DHT22;50313;52.894;6.492;2024-03-07T00:23:21;4.60;99.90
60309;DHT22;50313;52.894;6.492;2024-03-07T00:25:47;4.60;99.90
60309;DHT22;50313;52.894;6.492;2024-03-07T00:28:15;4.60;99.90
60309;DHT22;50313;52.894;6.492;2024-03-07T00:30:43;4.50;99.90
60309;DHT22;50313;52.894;6.492;2024-03-07T00:33:11;4.60;99.90
60309;DHT22;50313;52.894;6.492;2024-03-07T00:35:37;4.50;99.90
60309;DHT22;50313;52.894;6.492;2024-03-07T00:38:03;4.50;99.90
60309;DHT22;50313;52.894;6.492;2024-03-07T00:40:29;4.60;99.90
60309;DHT22;50313;52.894;6.492;2024-03-07T00:42:55;4.60;99.90
60309;DHT22;50313;52.894;6.492;2024-03-07T00:45:21;4.60;99.90
60309;DHT22;50313;52.894;6.492;2024-03-07T00:47:47;4.60;99.90
60309;DHT22;50313;52.894;6.492;2024-03-07T00:50:14;4.60;99.90
60309;DHT22;50313;52.894;6.492;2024-03-07T00:52:40;4.50;99.90
60309;DHT22;50313;52.894;6.492;2024-03-07T00:55:06;4.60;99.90
60309;DHT22;50313;52.894;6.492;2024-03-07T00:57:34;4.50;99.90
60309;DHT22;50313;52.894;6.492;2024-03-07T01:00:00;4.50;99.90
60309;DHT22;50313;52.894;6.492;2024-03-07T01:02:29;4.50;99.90
60309;DHT22;50313;52.894;6.492;2024-03-07T01:04:55;4.40;99.90
60309;DHT22;50313;52.894;6.492;2024-03-07T01:07:21;4.40;99.90
60309;DHT22;50313;52.894;6.492;2024-03-07T01:09:49;4.40;99.90
60309;DHT22;50313;52.894;6.492;2024-03-07T01:12:15;4.40;99.90
60309;DHT22;50313;52.894;6.492;2024-03-07T01:14:41;4.40;99.90
60309;DHT22;50313;52.894;6.492;2024-03-07T01:17:06;4.30;99.90
60309;DHT22;50313;52.894;6.492;2024-03-07T01:19:33;4.30;99.90
60309;DHT22;50313;52.894;6.492;2024-03-07T01:21:59;4.30;99.90
60309;DHT22;50313;52.894;6.492;2024-03-07T01:24:25;4.20;99.90
60309;DHT22;50313;52.894;6.492;2024-03-07T01:26:51;4.20;99.90
60309;DHT22;50313;52.894;6.492;2024-03-07T01:29:17;4.20;99.90
60309;DHT22;50313;52.894;6.492;2024-03-07T01:31:43;4.10;99.90
60309;DHT22;50313;52.894;6.492;2024-03-07T01:34:09;4.10;99.90
60309;DHT22;50313;52.894;6.492;2024-03-07T01:36:34;4.10;99.90
60309;DHT22;50313;52.894;6.492;2024-03-07T01:39:00;4.10;99.90
60309;DHT22;50313;52.894;6.492;2024-03-07T01:41:29;4.10;99.90
60309;DHT22;50313;52.894;6.492;2024-03-07T01:43:54;4.00;99.90
60309;DHT22;50313;52.894;6.492;2024-03-07T01:46:20;4.00;99.90
60309;DHT22;50313;52.894;6.492;2024-03-07T01:48:46;3.90;99.90
60309;DHT22;50313;52.894;6.492;2024-03-07T01:51:14;3.90;99.90
60309;DHT22;50313;52.894;6.492;2024-03-07T01:53:39;3.80;99.90
60309;DHT22;50313;52.894;6.492;2024-03-07T01:56:05;3.80;99.90
60309;DHT22;50313;52.894;6.492;2024-03-07T01:58:31;3.70;99.90
60309;DHT22;50313;52.894;6.492;2024-03-07T02:01:00;3.70;99.90
60309;DHT22;50313;52.894;6.492;2024-03-07T02:03:26;3.70;99.90
60309;DHT22;50313;52.894;6.492;2024-03-07T02:05:52;3.60;99.90
60309;DHT22;50313;52.894;6.492;2024-03-07T02:08:18;3.60;99.90
60309;DHT22;50313;52.894;6.492;2024-03-07T02:10:45;3.50;99.90
60309;DHT22;50313;52.894;6.492;2024-03-07T02:13:11;3.50;99.90
60309;DHT22;50313;52.894;6.492;2024-03-07T02:15:37;3.50;99.90
60309;DHT22;50313;52.894;6.492;2024-03-07T02:18:03;3.40;99.90
60309;DHT22;50313;52.894;6.492;2024-03-07T02:20:29;3.40;99.90
60309;DHT22;50313;52.894;6.492;2024-03-07T02:22:55;3.40;99.90
60309;DHT22;50313;52.894;6.492;2024-03-07T02:25:21;3.40;99.90
60309;DHT22;50313;52.894;6.492;2024-03-07T02:27:47;3.30;99.90
60309;DHT22;50313;52.894;6.492;2024-03-07T02:30:13;3.30;99.90
60309;DHT22;50313;52.894;6.492;2024-03-07T02:32:39;3.30;99.90
60309;DHT22;50313;52.894;6.492;2024-03-07T02:35:05;3.30;99.90
60309;DHT22;50313;52.894;6.492;2024-03-07T02:37:31;3.20;99.90
60309;DHT22;50313;52.894;6.492;2024-03-07T02:39:57;3.20;99.90
60309;DHT22;50313;52.894;6.492;2024-03-07T02:42:23;3.10;99.90
60309;DHT22;50313;52.894;6.492;2024-03-07T02:44:49;3.10;99.90
60309;DHT22;50313;52.894;6.492;2024-03-07T02:47:15;3.10;99.90
60309;DHT22;50313;52.894;6.492;2024-03-07T02:49:40;3.10;99.90
60309;DHT22;50313;52.894;6.492;2024-03-07T02:52:06;3.00;99.90
60309;DHT22;50313;52.894;6.492;2024-03-07T02:54:34;3.00;99.90
60309;DHT22;50313;52.894;6.492;2024-03-07T02:57:00;3.10;99.90
60309;DHT22;50313;52.894;6.492;2024-03-07T02:59:25;3.00;99.90
60309;DHT22;50313;52.894;6.492;2024-03-07T03:01:51;2.90;99.90
60309;DHT22;50313;52.894;6.492;2024-03-07T03:04:17;2.90;99.90
60309;DHT22;50313;52.894;6.492;2024-03-07T03:06:43;2.90;99.90
60309;DHT22;50313;52.894;6.492;2024-03-07T03:09:09;2.90;99.90
60309;DHT22;50313;52.894;6.492;2024-03-07T03:11:43;2.90;99.90
60309;DHT22;50313;52.894;6.492;2024-03-07T03:14:08;2.80;99.90
60309;DHT22;50313;52.894;6.492;2024-03-07T03:16:36;2.80;99.90
60309;DHT22;50313;52.894;6.492;2024-03-07T03:19:02;2.80;99.90
60309;DHT22;50313;52.894;6.492;2024-03-07T03:21:28;2.80;99.90
60309;DHT22;50313;52.894;6.492;2024-03-07T03:23:53;2.80;99.90
60309;DHT22;50313;52.894;6.492;2024-03-07T03:26:20;2.70;99.90
60309;DHT22;50313;52.894;6.492;2024-03-07T03:28:47;2.60;99.90
60309;DHT22;50313;52.894;6.492;2024-03-07T03:31:13;2.60;99.90
60309;DHT22;50313;52.894;6.492;2024-03-07T03:33:39;2.60;99.90
60309;DHT22;50313;52.894;6.492;2024-03-07T03:36:07;2.60;99.90
60309;DHT22;50313;52.894;6.492;2024-03-07T03:38:32;2.60;99.90
60309;DHT22;50313;52.894;6.492;2024-03-07T03:40:58;2.50;99.90
60309;DHT22;50313;52.894;6.492;2024-03-07T03:43:24;2.50;99.90
60309;DHT22;50313;52.894;6.492;2024-03-07T03:45:50;2.50;99.90
60309;DHT22;50313;52.894;6.492;2024-03-07T03:48:15;2.40;99.90
60309;DHT22;50313;52.894;6.492;2024-03-07T03:50:41;2.40;99.90
60309;DHT22;50313;52.894;6.492;2024-03-07T03:53:07;2.40;99.90
60309;DHT22;50313;52.894;6.492;2024-03-07T03:55:33;2.40;99.90
60309;DHT22;50313;52.894;6.492;2024-03-07T03:58:00;2.40;99.90
60309;DHT22;50313;52.894;6.492;2024-03-07T04:00:25;2.30;99.90
60309;DHT22;50313;52.894;6.492;2024-03-07T04:02:51;2.30;99.90
60309;DHT22;50313;52.894;6.492;2024-03-07T04:05:19;2.30;99.90
60309;DHT22;50313;52.894;6.492;2024-03-07T04:07:46;2.20;99.90
60309;DHT22;50313;52.894;6.492;2024-03-07T04:10:12;2.20;99.90
60309;DHT22;50313;52.894;6.492;2024-03-07T04:12:40;2.20;99.90
60309;DHT22;50313;52.894;6.492;2024-03-07T04:15:11;2.10;99.90
60309;DHT22;50313;52.894;6.492;2024-03-07T04:17:37;2.10;99.90
60309;DHT22;50313;52.894;6.492;2024-03-07T04:20:05;2.10;99.90
60309;DHT22;50313;52.894;6.492;2024-03-07T04:22:36;2.10;99.90
60309;DHT22;50313;52.894;6.492;2024-03-07T04:25:06;2.00;99.90
60309;DHT22;50313;52.894;6.492;2024-03-07T04:27:33;2.00;99.90
60309;DHT22;50313;52.894;6.492;2024-03-07T04:30:03;2.00;99.90
60309;DHT22;50313;52.894;6.492;2024-03-07T04:32:30;2.00;99.90
60309;DHT22;50313;52.894;6.492;2024-03-07T04:34:56;1.90;99.90
60309;DHT22;50313;52.894;6.492;2024-03-07T04:37:26;1.90;99.90
60309;DHT22;50313;52.894;6.492;2024-03-07T04:39:53;1.90;99.90
60309;DHT22;50313;52.894;6.492;2024-03-07T04:42:19;1.90;99.90
60309;DHT22;50313;52.894;6.492;2024-03-07T04:44:44;1.80;99.90
60309;DHT22;50313;52.894;6.492;2024-03-07T04:47:10;1.80;99.90
60309;DHT22;50313;52.894;6.492;2024-03-07T04:49:36;1.80;99.90
60309;DHT22;50313;52.894;6.492;2024-03-07T04:52:03;1.80;99.90
60309;DHT22;50313;52.894;6.492;2024-03-07T04:54:30;1.80;99.90
60309;DHT22;50313;52.894;6.492;2024-03-07T04:56:57;1.70;99.90
60309;DHT22;50313;52.894;6.492;2024-03-07T04:59:23;1.70;99.90
60309;DHT22;50313;52.894;6.492;2024-03-07T05:01:49;1.80;99.90
60309;DHT22;50313;52.894;6.492;2024-03-07T05:04:16;1.70;99.90
60309;DHT22;50313;52.894;6.492;2024-03-07T05:06:42;1.70;99.90
60309;DHT22;50313;52.894;6.492;2024-03-07T05:09:09;1.70;99.90
60309;DHT22;50313;52.894;6.492;2024-03-07T05:11:42;1.60;99.90
60309;DHT22;50313;52.894;6.492;2024-03-07T05:14:08;1.60;99.90
60309;DHT22;50313;52.894;6.492;2024-03-07T05:16:33;1.60;99.90
60309;DHT22;50313;52.894;6.492;2024-03-07T05:18:59;1.60;99.90
60309;DHT22;50313;52.894;6.492;2024-03-07T05:21:26;1.60;99.90
60309;DHT22;50313;52.894;6.492;2024-03-07T05:23:58;1.60;99.90
60309;DHT22;50313;52.894;6.492;2024-03-07T05:26:25;1.50;99.90
60309;DHT22;50313;52.894;6.492;2024-03-07T05:28:52;1.50;99.90
60309;DHT22;50313;52.894;6.492;2024-03-07T05:31:20;1.50;99.90
60309;DHT22;50313;52.894;6.492;2024-03-07T05:33:47;1.50;99.90
60309;DHT22;50313;52.894;6.492;2024-03-07T05:36:12;1.50;99.90
60309;DHT22;50313;52.894;6.492;2024-03-07T05:38:41;1.40;99.90
60309;DHT22;50313;52.894;6.492;2024-03-07T05:41:13;1.40;99.90
60309;DHT22;50313;52.894;6.492;2024-03-07T05:43:40;1.40;99.90
60309;DHT22;50313;52.894;6.492;2024-03-07T05:46:06;1.40;99.90
60309;DHT22;50313;52.894;6.492;2024-03-07T05:48:36;1.30;99.90
60309;DHT22;50313;52.894;6.492;2024-03-07T05:51:02;1.30;99.90
60309;DHT22;50313;52.894;6.492;2024-03-07T05:53:29;1.30;99.90
60309;DHT22;50313;52.894;6.492;2024-03-07T05:55:55;1.30;99.90
60309;DHT22;50313;52.894;6.492;2024-03-07T05:58:21;1.40;99.90
60309;DHT22;50313;52.894;6.492;2024-03-07T06:00:47;1.40;99.90
60309;DHT22;50313;52.894;6.492;2024-03-07T06:03:19;1.40;99.90
60309;DHT22;50313;52.894;6.492;2024-03-07T06:05:48;1.40;99.90
60309;DHT22;50313;52.894;6.492;2024-03-07T06:08:18;1.40;99.90
60309;DHT22;50313;52.894;6.492;2024-03-07T06:10:44;1.40;99.90
60309;DHT22;50313;52.894;6.492;2024-03-07T06:13:11;1.40;99.90
60309;DHT22;50313;52.894;6.492;2024-03-07T06:15:39;1.40;99.90
60309;DHT22;50313;52.894;6.492;2024-03-07T06:18:05;1.40;99.90
60309;DHT22;50313;52.894;6.492;2024-03-07T06:20:33;1.30;99.90
60309;DHT22;50313;52.894;6.492;2024-03-07T06:23:01;1.30;99.90
60309;DHT22;50313;52.894;6.492;2024-03-07T06:25:34;1.30;99.90
60309;DHT22;50313;52.894;6.492;2024-03-07T06:28:13;1.30;99.90
60309;DHT22;50313;52.894;6.492;2024-03-07T06:30:40;1.30;99.90
60309;DHT22;50313;52.894;6.492;2024-03-07T06:33:07;1.40;99.90
60309;DHT22;50313;52.894;6.492;2024-03-07T06:35:33;1.30;99.90
60309;DHT22;50313;52.894;6.492;2024-03-07T06:38:06;1.30;99.90
60309;DHT22;50313;52.894;6.492;2024-03-07T06:40:41;1.30;99.90
60309;DHT22;50313;52.894;6.492;2024-03-07T06:43:08;1.30;99.90
60309;DHT22;50313;52.894;6.492;2024-03-07T06:45:39;1.40;99.90
60309;DHT22;50313;52.894;6.492;2024-03-07T06:48:08;1.40;99.90
60309;DHT22;50313;52.894;6.492;2024-03-07T06:50:37;1.40;99.90
60309;DHT22;50313;52.894;6.492;2024-03-07T06:53:04;1.40;99.90
60309;DHT22;50313;52.894;6.492;2024-03-07T06:55:33;1.40;99.90
60309;DHT22;50313;52.894;6.492;2024-03-07T06:58:01;1.50;99.90
60309;DHT22;50313;52.894;6.492;2024-03-07T07:00:30;1.50;99.90
60309;DHT22;50313;52.894;6.492;2024-03-07T07:03:01;1.50;99.90
60309;DHT22;50313;52.894;6.492;2024-03-07T07:05:29;1.50;99.90
60309;DHT22;50313;52.894;6.492;2024-03-07T07:07:55;1.60;99.90
60309;DHT22;50313;52.894;6.492;2024-03-07T07:10:21;1.50;99.90
60309;DHT22;50313;52.894;6.492;2024-03-07T07:12:50;1.60;99.90
60309;DHT22;50313;52.894;6.492;2024-03-07T07:15:18;1.70;99.90
60309;DHT22;50313;52.894;6.492;2024-03-07T07:17:44;1.70;99.90
60309;DHT22;50313;52.894;6.492;2024-03-07T07:20:18;1.70;99.90
60309;DHT22;50313;52.894;6.492;2024-03-07T07:22:46;1.80;99.90
60309;DHT22;50313;52.894;6.492;2024-03-07T07:25:13;1.80;99.90
60309;DHT22;50313;52.894;6.492;2024-03-07T07:27:44;1.80;99.90
60309;DHT22;50313;52.894;6.492;2024-03-07T07:30:14;1.90;99.90
60309;DHT22;50313;52.894;6.492;2024-03-07T07:32:41;1.90;99.90
60309;DHT22;50313;52.894;6.492;2024-03-07T07:35:09;2.00;99.90
60309;DHT22;50313;52.894;6.492;2024-03-07T07:37:45;2.00;99.90
60309;DHT22;50313;52.894;6.492;2024-03-07T07:40:13;2.00;99.90
60309;DHT22;50313;52.894;6.492;2024-03-07T07:42:44;2.10;99.90
60309;DHT22;50313;52.894;6.492;2024-03-07T07:45:10;2.10;99.90
60309;DHT22;50313;52.894;6.492;2024-03-07T07:47:55;2.20;99.90
60309;DHT22;50313;52.894;6.492;2024-03-07T07:50:23;2.20;99.90
60309;DHT22;50313;52.894;6.492;2024-03-07T07:52:58;2.30;99.90
60309;DHT22;50313;52.894;6.492;2024-03-07T07:55:28;2.30;99.90
60309;DHT22;50313;52.894;6.492;2024-03-07T07:57:56;2.40;99.90
60309;DHT22;50313;52.894;6.492;2024-03-07T08:00:23;2.40;99.90
60309;DHT22;50313;52.894;6.492;2024-03-07T08:03:00;2.40;99.90
60309;DHT22;50313;52.894;6.492;2024-03-07T08:05:29;2.40;99.90
60309;DHT22;50313;52.894;6.492;2024-03-07T08:07:56;2.40;99.90
60309;DHT22;50313;52.894;6.492;2024-03-07T08:10:25;2.50;99.90
60309;DHT22;50313;52.894;6.492;2024-03-07T08:12:51;2.50;99.90
60309;DHT22;50313;52.894;6.492;2024-03-07T08:15:17;2.50;99.90
60309;DHT22;50313;52.894;6.492;2024-03-07T08:17:44;2.60;99.90
60309;DHT22;50313;52.894;6.492;2024-03-07T08:20:20;2.50;99.90
60309;DHT22;50313;52.894;6.492;2024-03-07T08:22:50;2.50;99.90
60309;DHT22;50313;52.894;6.492;2024-03-07T08:25:20;2.50;99.90
60309;DHT22;50313;52.894;6.492;2024-03-07T08:27:50;2.40;99.90
60309;DHT22;50313;52.894;6.492;2024-03-07T08:30:16;2.30;99.90
60309;DHT22;50313;52.894;6.492;2024-03-07T08:32:44;2.20;99.90
60309;DHT22;50313;52.894;6.492;2024-03-07T08:35:11;2.30;99.90
60309;DHT22;50313;52.894;6.492;2024-03-07T08:37:41;2.30;99.90
60309;DHT22;50313;52.894;6.492;2024-03-07T08:40:08;2.30;99.90
60309;DHT22;50313;52.894;6.492;2024-03-07T08:42:45;2.30;99.90
60309;DHT22;50313;52.894;6.492;2024-03-07T08:45:11;2.40;99.90
60309;DHT22;50313;52.894;6.492;2024-03-07T08:47:43;2.50;99.90
60309;DHT22;50313;52.894;6.492;2024-03-07T08:50:09;2.40;99.90
60309;DHT22;50313;52.894;6.492;2024-03-07T08:52:35;2.50;99.90
60309;DHT22;50313;52.894;6.492;2024-03-07T08:55:09;2.60;99.90
60309;DHT22;50313;52.894;6.492;2024-03-07T08:57:38;2.70;99.90
60309;DHT22;50313;52.894;6.492;2024-03-07T09:00:05;2.60;99.90
60309;DHT22;50313;52.894;6.492;2024-03-07T09:02:34;2.60;99.90
60309;DHT22;50313;52.894;6.492;2024-03-07T09:05:03;2.70;99.90
60309;DHT22;50313;52.894;6.492;2024-03-07T09:07:29;2.70;99.90
60309;DHT22;50313;52.894;6.492;2024-03-07T09:09:55;2.60;99.90
60309;DHT22;50313;52.894;6.492;2024-03-07T09:12:21;2.60;99.90
60309;DHT22;50313;52.894;6.492;2024-03-07T09:14:47;2.60;99.90
60309;DHT22;50313;52.894;6.492;2024-03-07T09:17:13;2.70;99.90
60309;DHT22;50313;52.894;6.492;2024-03-07T09:19:39;2.70;99.90
60309;DHT22;50313;52.894;6.492;2024-03-07T09:22:05;2.60;99.90
60309;DHT22;50313;52.894;6.492;2024-03-07T09:24:33;2.70;99.90
60309;DHT22;50313;52.894;6.492;2024-03-07T09:27:00;2.60;99.90
60309;DHT22;50313;52.894;6.492;2024-03-07T09:29:26;2.60;99.90
60309;DHT22;50313;52.894;6.492;2024-03-07T09:31:53;2.60;99.90
60309;DHT22;50313;52.894;6.492;2024-03-07T09:34:20;2.60;99.90
60309;DHT22;50313;52.894;6.492;2024-03-07T09:36:47;2.60;99.90
60309;DHT22;50313;52.894;6.492;2024-03-07T09:39:13;2.70;99.90
60309;DHT22;50313;52.894;6.492;2024-03-07T09:41:39;2.60;99.90
60309;DHT22;50313;52.894;6.492;2024-03-07T09:44:14;2.70;99.90
60309;DHT22;50313;52.894;6.492;2024-03-07T09:46:42;2.70;99.90
60309;DHT22;50313;52.894;6.492;2024-03-07T09:49:10;2.70;99.90
60309;DHT22;50313;52.894;6.492;2024-03-07T09:51:37;2.70;99.90
60309;DHT22;50313;52.894;6.492;2024-03-07T09:54:03;2.80;99.90
60309;DHT22;50313;52.894;6.492;2024-03-07T09:56:31;2.80;99.90
60309;DHT22;50313;52.894;6.492;2024-03-07T09:59:11;2.90;99.90
60309;DHT22;50313;52.894;6.492;2024-03-07T10:01:38;3.00;99.90
60309;DHT22;50313;52.894;6.492;2024-03-07T10:04:08;3.10;99.90
60309;DHT22;50313;52.894;6.492;2024-03-07T10:06:40;3.30;99.90
60309;DHT22;50313;52.894;6.492;2024-03-07T10:09:10;3.40;99.90
60309;DHT22;50313;52.894;6.492;2024-03-07T10:11:39;3.30;99.90
60309;DHT22;50313;52.894;6.492;2024-03-07T10:14:07;3.20;99.90
60309;DHT22;50313;52.894;6.492;2024-03-07T10:16:33;3.40;99.90
60309;DHT22;50313;52.894;6.492;2024-03-07T10:18:59;3.50;99.90
60309;DHT22;50313;52.894;6.492;2024-03-07T10:21:27;3.60;99.90
60309;DHT22;50313;52.894;6.492;2024-03-07T10:24:07;3.70;99.90
60309;DHT22;50313;52.894;6.492;2024-03-07T10:26:37;3.90;99.90
60309;DHT22;50313;52.894;6.492;2024-03-07T10:29:06;4.00;99.90
60309;DHT22;50313;52.894;6.492;2024-03-07T10:31:34;4.10;99.90
60309;DHT22;50313;52.894;6.492;2024-03-07T10:34:04;4.10;99.90
60309;DHT22;50313;52.894;6.492;2024-03-07T10:36:31;4.30;99.90
60309;DHT22;50313;52.894;6.492;2024-03-07T10:39:01;4.40;99.90
60309;DHT22;50313;52.894;6.492;2024-03-07T10:41:48;4.40;99.90
60309;DHT22;50313;52.894;6.492;2024-03-07T10:44:36;4.60;99.90
60309;DHT22;50313;52.894;6.492;2024-03-07T10:47:08;4.60;99.90
60309;DHT22;50313;52.894;6.492;2024-03-07T10:49:39;4.70;99.90
60309;DHT22;50313;52.894;6.492;2024-03-07T10:52:14;4.90;99.90
60309;DHT22;50313;52.894;6.492;2024-03-07T10:55:00;5.10;99.90
60309;DHT22;50313;52.894;6.492;2024-03-07T10:57:52;5.10;99.90
60309;DHT22;50313;52.894;6.492;2024-03-07T11:00:26;5.20;99.90
60309;DHT22;50313;52.894;6.492;2024-03-07T11:03:09;5.10;99.90
60309;DHT22;50313;52.894;6.492;2024-03-07T11:05:37;5.30;99.90
60309;DHT22;50313;52.894;6.492;2024-03-07T11:08:05;5.50;99.90
60309;DHT22;50313;52.894;6.492;2024-03-07T11:10:37;5.70;99.90
60309;DHT22;50313;52.894;6.492;2024-03-07T11:13:09;5.60;99.90
60309;DHT22;50313;52.894;6.492;2024-03-07T11:15:41;5.70;99.90
60309;DHT22;50313;52.894;6.492;2024-03-07T11:18:08;5.60;99.90
60309;DHT22;50313;52.894;6.492;2024-03-07T11:20:39;5.60;99.90
60309;DHT22;50313;52.894;6.492;2024-03-07T11:26:06;5.60;99.90
60309;DHT22;50313;52.894;6.492;2024-03-07T11:28:39;5.50;99.90
60309;DHT22;50313;52.894;6.492;2024-03-07T11:31:15;5.70;99.90
60309;DHT22;50313;52.894;6.492;2024-03-07T11:33:41;5.60;99.90
60309;DHT22;50313;52.894;6.492;2024-03-07T11:36:09;5.70;99.90
60309;DHT22;50313;52.894;6.492;2024-03-07T11:38:45;5.70;99.90
60309;DHT22;50313;52.894;6.492;2024-03-07T11:41:12;5.70;99.90
60309;DHT22;50313;52.894;6.492;2024-03-07T11:43:42;5.80;99.90
60309;DHT22;50313;52.894;6.492;2024-03-07T11:46:08;5.90;99.90
60309;DHT22;50313;52.894;6.492;2024-03-07T11:48:39;5.80;99.90
60309;DHT22;50313;52.894;6.492;2024-03-07T11:51:07;5.90;99.90
60309;DHT22;50313;52.894;6.492;2024-03-07T11:53:39;5.90;99.90
60309;DHT22;50313;52.894;6.492;2024-03-07T11:56:06;5.90;99.90
60309;DHT22;50313;52.894;6.492;2024-03-07T11:58:38;5.80;99.90
60309;DHT22;50313;52.894;6.492;2024-03-07T12:01:07;5.80;99.90
60309;DHT22;50313;52.894;6.492;2024-03-07T12:03:39;5.90;99.90
60309;DHT22;50313;52.894;6.492;2024-03-07T12:06:05;5.90;99.90
60309;DHT22;50313;52.894;6.492;2024-03-07T12:08:30;5.80;99.90
60309;DHT22;50313;52.894;6.492;2024-03-07T12:10:57;5.80;99.90
60309;DHT22;50313;52.894;6.492;2024-03-07T12:13:23;5.80;99.90
60309;DHT22;50313;52.894;6.492;2024-03-07T12:15:50;5.80;99.90
60309;DHT22;50313;52.894;6.492;2024-03-07T12:18:21;5.90;99.90
60309;DHT22;50313;52.894;6.492;2024-03-07T12:20:48;5.90;99.90
60309;DHT22;50313;52.894;6.492;2024-03-07T12:23:22;5.90;99.90
60309;DHT22;50313;52.894;6.492;2024-03-07T12:26:02;6.10;99.90
60309;DHT22;50313;52.894;6.492;2024-03-07T12:28:28;6.30;99.90
60309;DHT22;50313;52.894;6.492;2024-03-07T12:30:58;6.40;99.90
60309;DHT22;50313;52.894;6.492;2024-03-07T12:33:29;6.40;99.90
60309;DHT22;50313;52.894;6.492;2024-03-07T12:35:55;6.40;99.90
60309;DHT22;50313;52.894;6.492;2024-03-07T12:38:31;6.50;99.90
60309;DHT22;50313;52.894;6.492;2024-03-07T12:41:07;6.60;99.90
60309;DHT22;50313;52.894;6.492;2024-03-07T12:43:40;6.50;99.90
60309;DHT22;50313;52.894;6.492;2024-03-07T12:46:10;6.40;99.90
60309;DHT22;50313;52.894;6.492;2024-03-07T12:48:37;6.30;99.90
60309;DHT22;50313;52.894;6.492;2024-03-07T12:51:04;6.30;99.90
60309;DHT22;50313;52.894;6.492;2024-03-07T12:53:30;6.30;99.90
60309;DHT22;50313;52.894;6.492;2024-03-07T12:55:57;6.30;99.90
60309;DHT22;50313;52.894;6.492;2024-03-07T12:58:23;6.40;99.90
60309;DHT22;50313;52.894;6.492;2024-03-07T13:00:52;6.50;99.90
60309;DHT22;50313;52.894;6.492;2024-03-07T13:03:21;6.40;99.90
60309;DHT22;50313;52.894;6.492;2024-03-07T13:05:47;6.30;99.90
60309;DHT22;50313;52.894;6.492;2024-03-07T13:08:12;6.20;99.90
60309;DHT22;50313;52.894;6.492;2024-03-07T13:10:42;6.10;99.90
60309;DHT22;50313;52.894;6.492;2024-03-07T13:13:08;6.00;99.90
60309;DHT22;50313;52.894;6.492;2024-03-07T13:15:37;6.00;99.90
60309;DHT22;50313;52.894;6.492;2024-03-07T13:18:05;6.10;99.90
60309;DHT22;50313;52.894;6.492;2024-03-07T13:20:31;6.10;99.90
60309;DHT22;50313;52.894;6.492;2024-03-07T13:22:57;6.10;99.90
60309;DHT22;50313;52.894;6.492;2024-03-07T13:25:25;6.10;99.90
60309;DHT22;50313;52.894;6.492;2024-03-07T13:30:21;6.10;99.90
60309;DHT22;50313;52.894;6.492;2024-03-07T13:32:54;6.10;99.90
60309;DHT22;50313;52.894;6.492;2024-03-07T13:35:21;6.10;99.90
60309;DHT22;50313;52.894;6.492;2024-03-07T13:37:48;6.00;99.90
60309;DHT22;50313;52.894;6.492;2024-03-07T13:40:14;6.10;99.90
60309;DHT22;50313;52.894;6.492;2024-03-07T13:42:55;6.00;99.90
60309;DHT22;50313;52.894;6.492;2024-03-07T13:45:24;6.10;99.90
60309;DHT22;50313;52.894;6.492;2024-03-07T13:47:53;6.10;99.90
60309;DHT22;50313;52.894;6.492;2024-03-07T13:50:22;6.10;99.90
60309;DHT22;50313;52.894;6.492;2024-03-07T13:52:51;6.10;99.90
60309;DHT22;50313;52.894;6.492;2024-03-07T14:16:17;6.10;99.90
60309;DHT22;50313;52.894;6.492;2024-03-07T14:19:24;6.20;99.90
60309;DHT22;50313;52.894;6.492;2024-03-07T14:27:24;6.20;99.90
60309;DHT22;50313;52.894;6.492;2024-03-07T14:29:59;6.20;99.90
60309;DHT22;50313;52.894;6.492;2024-03-07T14:32:31;6.20;99.90
60309;DHT22;50313;52.894;6.492;2024-03-07T14:40:39;6.20;99.90
60309;DHT22;50313;52.894;6.492;2024-03-07T14:43:06;6.20;99.90
60309;DHT22;50313;52.894;6.492;2024-03-07T14:45:39;6.20;99.90
60309;DHT22;50313;52.894;6.492;2024-03-07T14:48:06;6.20;99.90
60309;DHT22;50313;52.894;6.492;2024-03-07T14:50:38;6.20;99.90
60309;DHT22;50313;52.894;6.492;2024-03-07T14:53:05;6.20;99.90
60309;DHT22;50313;52.894;6.492;2024-03-07T14:55:31;6.20;99.90
60309;DHT22;50313;52.894;6.492;2024-03-07T14:57:58;6.30;99.90
60309;DHT22;50313;52.894;6.492;2024-03-07T15:00:25;6.30;99.90
60309;DHT22;50313;52.894;6.492;2024-03-07T15:02:54;6.40;99.90
60309;DHT22;50313;52.894;6.492;2024-03-07T15:05:24;6.30;99.90
60309;DHT22;50313;52.894;6.492;2024-03-07T15:07:52;6.30;99.90
60309;DHT22;50313;52.894;6.492;2024-03-07T15:10:28;6.30;99.90
60309;DHT22;50313;52.894;6.492;2024-03-07T15:12:55;6.30;99.90
60309;DHT22;50313;52.894;6.492;2024-03-07T15:15:20;6.40;99.90
60309;DHT22;50313;52.894;6.492;2024-03-07T15:17:50;6.40;99.90
60309;DHT22;50313;52.894;6.492;2024-03-07T15:20:17;6.40;99.90
60309;DHT22;50313;52.894;6.492;2024-03-07T15:22:53;6.40;99.90
60309;DHT22;50313;52.894;6.492;2024-03-07T15:25:20;6.40;99.90
60309;DHT22;50313;52.894;6.492;2024-03-07T15:27:51;6.40;99.90
60309;DHT22;50313;52.894;6.492;2024-03-07T15:30:19;6.40;99.90
60309;DHT22;50313;52.894;6.492;2024-03-07T15:32:46;6.40;99.90
60309;DHT22;50313;52.894;6.492;2024-03-07T15:35:13;6.50;99.90
60309;DHT22;50313;52.894;6.492;2024-03-07T15:37:45;6.50;99.90
60309;DHT22;50313;52.894;6.492;2024-03-07T15:40:12;6.50;99.90
60309;DHT22;50313;52.894;6.492;2024-03-07T15:42:46;6.60;99.90
60309;DHT22;50313;52.894;6.492;2024-03-07T15:45:21;6.60;99.90
60309;DHT22;50313;52.894;6.492;2024-03-07T15:47:52;6.60;99.90
60309;DHT22;50313;52.894;6.492;2024-03-07T15:50:19;6.60;99.90
60309;DHT22;50313;52.894;6.492;2024-03-07T15:52:49;6.60;99.90
60309;DHT22;50313;52.894;6.492;2024-03-07T15:55:19;6.60;99.90
60309;DHT22;50313;52.894;6.492;2024-03-07T15:57:53;6.60;99.90
60309;DHT22;50313;52.894;6.492;2024-03-07T16:00:24;6.50;99.90
60309;DHT22;50313;52.894;6.492;2024-03-07T16:02:54;6.60;99.90
60309;DHT22;50313;52.894;6.492;2024-03-07T16:05:21;6.60;99.90
60309;DHT22;50313;52.894;6.492;2024-03-07T16:07:52;6.50;99.90
60309;DHT22;50313;52.894;6.492;2024-03-07T16:10:22;6.50;99.90
60309;DHT22;50313;52.894;6.492;2024-03-07T16:12:50;6.50;99.90
60309;DHT22;50313;52.894;6.492;2024-03-07T16:15:16;6.50;99.90
60309;DHT22;50313;52.894;6.492;2024-03-07T16:17:42;6.50;99.90
60309;DHT22;50313;52.894;6.492;2024-03-07T16:20:10;6.50;99.90
60309;DHT22;50313;52.894;6.492;2024-03-07T16:22:43;6.50;99.90
60309;DHT22;50313;52.894;6.492;2024-03-07T16:25:10;6.50;99.90
60309;DHT22;50313;52.894;6.492;2024-03-07T16:27:39;6.50;99.90
60309;DHT22;50313;52.894;6.492;2024-03-07T16:32:42;6.50;99.90